Aeroporto :
LOGIN :

Iscrizione | Disclaimer

   EN    FR    IT 

 










Sommario :    VFR   VFR Marginale   IFR   IFR Intensivo   IFR Molto Intensivo
Visibilità : 
Base nubi : 
>= 8 km
>= 3000ft
5 / 8 km
1000 / 3000 ft
1500m / 5 km
500 / 1000 ft
800 / 1500m
200 / 500 ft
< 800m
< 200 ft
Simboli :   Temporali  Nebbia  Neve Forte  Precipitazioni Forti  Vento > 20 kt
SIGMETs :   Varie  Temporali  Ghiacco  Turbolenza  Onda orograficha  Ceneri Vulcaniche






- Altitudine del aeroporto : 1247 ft
- Codice IATA : PRG


LKPR - Praha Ruzyne

ULTIMO METAR :
  • 212300Z 32005KT CAVOK M01/M04 Q1021 NOSIG

METARs OBSOLETI :
  • 212230Z 34005KT CAVOK M01/M04 Q1021 NOSIG
  • 212200Z 35004KT CAVOK M00/M04 Q1021 NOSIG
  • 212130Z 03003KT CAVOK M00/M04 Q1021 NOSIG
  • 212100Z 36004KT 330V040 CAVOK 00/M05 Q1021 NOSIG
  • 212030Z 01006KT CAVOK 00/M05 Q1020 NOSIG
  • 212000Z 01007KT CAVOK 01/M05 Q1020 NOSIG
  • 211930Z 01007KT CAVOK 02/M05 Q1020 NOSIG
  • 211830Z 02007KT CAVOK 02/M06 Q1020 NOSIG
  • 211800Z 01010KT CAVOK 03/M06 Q1020 NOSIG

TAF TAF LKPR
Valido dal 21 a 21 ore il 23 a 03 ore UTC


212000Z 2121/2303 01010KT CAVOK
TEMPO 2209/2217 9999 BKN030



MetMap, La meteo Aeronautica in un colpo d'occhio ! - Copyright ORBIFLY Dicembre 2007 - Disclaimer

ORBIFLY MET'MAP TEAM :

Programmazione e sviluppo : Alexandra Zaïnal
Concezione : Baudouin d'Aumeries
Supporto tecnico e logistico : Manuel Goepfert
Aiuto : Marc-Olivier Méhu
Aiuto per la traduzione : Arnaldo La Scala




FONTI E CREDITI :

   NOAA